Time;durP1;ratioP1;P1;durP2;ratioP2;P2;SDS_P1;SDS_P2;PMS_P1;PMS_P2;Temp;Humidity;BMP_temperature;BMP_pressure;BME280_temperature;BME280_humidity;BME280_pressure;Samples;Min_cycle;Max_cycle;Signal;HPM_P1;HPM_P2
2021/04/29 00:02:05;;;;;;;2.00;1.83;;;11.60;99.90;;;;;;5000399;28;20419;-58
2021/04/29 00:04:31;;;;;;;2.43;1.60;;;11.60;99.90;;;;;;5000507;28;20716;-58
2021/04/29 00:06:56;;;;;;;2.10;1.53;;;11.50;99.90;;;;;;5000349;28;20199;-57
2021/04/29 00:09:22;;;;;;;1.77;1.67;;;11.60;99.90;;;;;;5014047;28;20685;-58
2021/04/29 00:11:48;;;;;;;1.50;1.40;;;11.60;99.90;;;;;;5000508;28;20185;-57
2021/04/29 00:14:14;;;;;;;1.50;1.40;;;11.50;99.90;;;;;;4997773;28;20789;-58
2021/04/29 00:16:41;;;;;;;1.63;1.53;;;11.50;99.90;;;;;;4999917;28;20180;-57
2021/04/29 00:19:07;;;;;;;2.10;1.83;;;11.50;99.90;;;;;;4999087;28;20266;-58
2021/04/29 00:21:33;;;;;;;1.67;1.57;;;11.50;99.90;;;;;;5001382;28;20542;-57
2021/04/29 00:23:58;;;;;;;2.17;1.97;;;11.50;99.90;;;;;;5000872;28;20431;-58
2021/04/29 00:26:24;;;;;;;1.80;1.70;;;11.50;99.90;;;;;;4997742;28;20189;-59
2021/04/29 00:28:53;;;;;;;2.80;1.73;;;11.40;99.90;;;;;;5011068;28;20549;-58
2021/04/29 00:31:19;;;;;;;1.60;1.50;;;11.40;99.90;;;;;;5008304;28;20181;-58
2021/04/29 00:33:45;;;;;;;2.80;1.50;;;11.40;99.90;;;;;;4998023;28;20458;-57
2021/04/29 00:36:10;;;;;;;1.70;1.60;;;11.40;99.90;;;;;;5001389;28;20423;-58
2021/04/29 00:38:36;;;;;;;1.90;1.70;;;11.40;99.90;;;;;;5001808;28;20604;-58
2021/04/29 00:41:03;;;;;;;2.03;1.40;;;11.30;99.90;;;;;;4999436;28;20695;-58
2021/04/29 00:43:29;;;;;;;2.73;1.43;;;11.30;99.90;;;;;;5000766;28;20561;-59
2021/04/29 00:45:55;;;;;;;1.60;1.40;;;11.30;99.90;;;;;;4999980;28;20459;-58
2021/04/29 00:48:21;;;;;;;1.27;1.23;;;11.30;99.90;;;;;;4999683;28;20254;-58
2021/04/29 00:50:48;;;;;;;1.40;1.30;;;11.30;99.90;;;;;;5002755;28;21066;-58
2021/04/29 00:53:14;;;;;;;1.40;1.30;;;11.30;99.90;;;;;;4999882;28;20517;-59
2021/04/29 00:55:39;;;;;;;1.40;1.30;;;11.30;99.90;;;;;;5000579;28;20431;-58
2021/04/29 00:58:05;;;;;;;1.50;1.40;;;11.20;99.90;;;;;;4998967;28;20233;-57
2021/04/29 01:00:31;;;;;;;2.03;1.73;;;11.30;99.90;;;;;;4997899;28;20183;-58
2021/04/29 01:03:07;;;;;;;0.90;0.90;;;11.20;99.90;;;;;;4998265;28;20208;-58
2021/04/29 01:05:38;;;;;;;1.13;1.13;;;11.20;99.90;;;;;;4999383;28;20878;-58
2021/04/29 01:10:42;;;;;;;1.70;1.03;;;11.20;99.90;;;;;;5017678;28;20497;-58
2021/04/29 01:13:14;;;;;;;1.10;1.10;;;11.20;99.90;;;;;;5021167;28;20544;-59
2021/04/29 01:15:45;;;;;;;1.80;1.10;;;11.20;99.90;;;;;;5020208;28;20609;-60
2021/04/29 01:18:12;;;;;;;1.30;1.20;;;11.10;99.90;;;;;;5020345;28;20470;-59
2021/04/29 01:20:59;;;;;;;0.97;0.93;;;11.10;99.90;;;;;;5019187;28;20422;-59
2021/04/29 01:23:46;;;;;;;2.03;1.43;;;11.10;99.90;;;;;;5021116;28;20422;-59
2021/04/29 01:26:29;;;;;;;1.13;1.13;;;11.10;99.90;;;;;;5022264;28;20506;-59
2021/04/29 01:28:57;;;;;;;1.73;1.27;;;11.10;99.90;;;;;;5021310;28;20492;-59
2021/04/29 01:31:33;;;;;;;1.50;1.40;;;11.00;99.90;;;;;;5019939;28;20792;-59
2021/04/29 01:34:02;;;;;;;1.50;1.33;;;11.00;99.90;;;;;;5020113;28;20600;-59
2021/04/29 01:36:29;;;;;;;1.83;1.60;;;11.00;99.90;;;;;;5018404;28;20432;-59
2021/04/29 01:38:56;;;;;;;3.40;1.73;;;10.90;99.90;;;;;;5018795;28;20446;-59
2021/04/29 01:41:23;;;;;;;3.47;2.00;;;10.90;99.90;;;;;;5018985;28;20433;-59
2021/04/29 01:43:49;;;;;;;1.60;1.50;;;10.90;99.90;;;;;;5019838;28;20951;-59
2021/04/29 01:46:15;;;;;;;1.87;1.73;;;10.80;99.40;;;;;;5020541;28;20477;-61
2021/04/29 01:48:41;;;;;;;2.47;1.80;;;10.80;98.70;;;;;;5019777;28;20454;-58
2021/04/29 01:51:08;;;;;;;2.90;1.90;;;10.70;98.90;;;;;;5015136;28;20495;-59
2021/04/29 01:53:34;;;;;;;2.03;1.83;;;10.70;98.90;;;;;;5017120;28;20266;-59
2021/04/29 01:56:01;;;;;;;4.10;2.07;;;10.70;98.80;;;;;;5020629;28;20875;-59
2021/04/29 01:58:26;;;;;;;3.90;2.17;;;10.70;98.60;;;;;;5022362;28;20795;-57
2021/04/29 02:00:52;;;;;;;5.53;2.27;;;10.70;98.80;;;;;;5022664;28;20862;-59
2021/04/29 02:03:18;;;;;;;2.10;1.90;;;10.70;98.60;;;;;;5019702;28;20627;-60
2021/04/29 02:05:44;;;;;;;2.60;2.40;;;10.70;98.30;;;;;;5017385;28;20269;-59
2021/04/29 02:08:09;;;;;;;9.83;2.00;;;10.60;97.60;;;;;;5020984;28;20466;-61
2021/04/29 02:10:35;;;;;;;1.90;1.70;;;10.60;98.10;;;;;;5027295;28;20175;-60
2021/04/29 02:13:02;;;;;;;6.70;2.20;;;10.60;98.00;;;;;;5028154;28;20180;-59
2021/04/29 02:15:37;;;;;;;2.10;1.90;;;10.60;98.10;;;;;;5026731;28;20648;-59
2021/04/29 02:18:17;;;;;;;2.70;2.17;;;10.60;97.50;;;;;;5028012;28;20413;-59
2021/04/29 02:20:45;;;;;;;4.93;2.07;;;10.50;97.20;;;;;;5028103;28;20434;-59
2021/04/29 02:23:13;;;;;;;1.80;1.63;;;10.50;97.70;;;;;;5025622;28;20458;-59
2021/04/29 02:25:40;;;;;;;4.77;2.30;;;10.50;97.60;;;;;;5025047;28;20434;-58
2021/04/29 02:28:05;;;;;;;2.13;1.90;;;10.50;96.90;;;;;;5022506;28;20860;-59
2021/04/29 02:30:32;;;;;;;4.43;1.97;;;10.40;97.40;;;;;;5027846;28;20434;-59
2021/04/29 02:32:59;;;;;;;3.33;1.90;;;10.40;97.50;;;;;;5025296;28;20568;-59
2021/04/29 02:35:25;;;;;;;1.80;1.70;;;10.40;97.10;;;;;;5022458;28;21854;-61
2021/04/29 02:37:52;;;;;;;3.80;1.97;;;10.40;97.50;;;;;;5027061;28;20452;-61
2021/04/29 02:40:19;;;;;;;3.03;2.17;;;10.40;97.70;;;;;;5025880;28;20457;-59
2021/04/29 02:42:45;;;;;;;4.30;1.70;;;10.40;98.10;;;;;;5028325;28;20446;-59
2021/04/29 02:45:14;;;;;;;2.90;1.80;;;10.40;97.90;;;;;;5034445;28;20949;-59
2021/04/29 02:47:48;;;;;;;4.10;1.87;;;10.30;97.20;;;;;;5025829;28;20862;-59
2021/04/29 02:50:19;;;;;;;2.10;1.80;;;10.30;97.10;;;;;;5031949;28;20461;-60
2021/04/29 02:52:46;;;;;;;3.60;1.90;;;10.30;96.70;;;;;;5032320;28;20989;-60
2021/04/29 02:55:13;;;;;;;4.10;2.00;;;10.30;97.00;;;;;;5025394;28;20427;-59
2021/04/29 02:57:39;;;;;;;2.60;2.00;;;10.30;96.70;;;;;;5029182;28;20505;-59
2021/04/29 03:00:14;;;;;;;2.30;2.10;;;10.20;96.50;;;;;;5035790;28;20521;-59
2021/04/29 03:02:40;;;;;;;3.23;1.90;;;10.20;97.00;;;;;;5040307;28;20929;-60
2021/04/29 03:05:14;;;;;;;2.37;2.17;;;10.20;97.30;;;;;;5030979;28;20445;-59
2021/04/29 03:07:41;;;;;;;1.93;1.73;;;10.20;97.50;;;;;;5033397;28;20441;-60
2021/04/29 03:10:08;;;;;;;6.10;2.20;;;10.20;98.00;;;;;;5033117;28;20851;-59
2021/04/29 03:12:34;;;;;;;2.60;2.20;;;10.20;97.90;;;;;;5028726;28;20431;-59
2021/04/29 03:15:00;;;;;;;3.00;2.70;;;10.20;98.20;;;;;;5032548;28;20457;-60
2021/04/29 03:17:26;;;;;;;4.20;2.07;;;10.20;98.60;;;;;;5031233;28;20171;-59
2021/04/29 03:19:53;;;;;;;12.23;1.97;;;10.20;98.20;;;;;;5034013;28;20192;-61
2021/04/29 03:22:19;;;;;;;2.17;1.97;;;10.20;98.20;;;;;;5032890;28;20440;-60
2021/04/29 03:24:45;;;;;;;5.77;2.33;;;10.10;97.80;;;;;;5040034;28;20506;-58
2021/04/29 03:27:11;;;;;;;5.73;2.50;;;10.10;97.70;;;;;;5019512;28;20430;-60
2021/04/29 03:29:37;;;;;;;3.30;2.00;;;10.10;97.80;;;;;;5028482;28;20451;-60
2021/04/29 03:32:02;;;;;;;5.50;2.13;;;10.10;97.80;;;;;;5020959;28;20184;-59
2021/04/29 03:34:28;;;;;;;3.10;2.20;;;10.10;97.30;;;;;;5029776;28;20291;-59
2021/04/29 03:36:54;;;;;;;2.60;2.37;;;10.10;97.20;;;;;;5027947;28;20204;-64
2021/04/29 03:39:19;;;;;;;3.60;2.40;;;10.10;97.20;;;;;;5028041;28;20277;-60
2021/04/29 03:41:45;;;;;;;3.70;2.47;;;10.10;97.20;;;;;;5029632;28;20176;-60
2021/04/29 03:44:10;;;;;;;3.57;1.97;;;10.10;97.50;;;;;;5039228;28;20222;-60
2021/04/29 03:46:36;;;;;;;9.50;2.70;;;10.10;97.40;;;;;;5024180;28;20253;-59
2021/04/29 03:49:02;;;;;;;6.03;2.60;;;10.10;97.40;;;;;;5024993;28;20704;-60
2021/04/29 03:51:28;;;;;;;4.30;2.53;;;10.10;97.50;;;;;;5017997;28;20177;-59
2021/04/29 03:53:56;;;;;;;3.10;2.43;;;10.10;97.50;;;;;;5023241;28;20461;-60
2021/04/29 03:56:21;;;;;;;5.30;2.80;;;10.10;97.50;;;;;;5023811;28;20735;-61
2021/04/29 03:58:47;;;;;;;2.53;2.30;;;10.10;97.30;;;;;;5023496;28;20962;-58
2021/04/29 04:01:12;;;;;;;2.40;2.20;;;10.10;97.30;;;;;;5027458;28;20671;-60
2021/04/29 04:03:38;;;;;;;2.93;2.00;;;10.10;97.50;;;;;;5022265;28;20171;-59
2021/04/29 04:06:04;;;;;;;2.67;2.00;;;10.10;97.50;;;;;;5026140;28;20176;-60
2021/04/29 04:08:30;;;;;;;3.00;2.50;;;10.10;97.30;;;;;;5027783;28;20662;-60
2021/04/29 04:10:55;;;;;;;5.17;2.23;;;10.00;97.60;;;;;;5026379;28;20557;-57
2021/04/29 04:13:21;;;;;;;2.80;2.23;;;10.00;98.00;;;;;;5026069;28;20196;-59
2021/04/29 04:15:48;;;;;;;2.30;2.10;;;10.00;98.00;;;;;;5021167;28;20235;-60
2021/04/29 04:18:13;;;;;;;2.90;2.33;;;10.00;98.30;;;;;;5021954;28;21272;-60
2021/04/29 04:20:40;;;;;;;2.83;2.40;;;10.00;98.40;;;;;;5022065;28;20427;-60
2021/04/29 04:23:07;;;;;;;3.03;2.30;;;10.00;98.60;;;;;;5020485;28;20767;-59
2021/04/29 04:25:33;;;;;;;6.13;3.70;;;9.90;99.00;;;;;;5035569;28;20433;-59
2021/04/29 04:27:58;;;;;;;6.23;2.37;;;9.90;99.00;;;;;;5023460;28;21016;-59
2021/04/29 04:30:24;;;;;;;3.23;2.60;;;9.90;99.30;;;;;;5021384;28;20477;-60
2021/04/29 04:32:50;;;;;;;4.40;3.10;;;9.90;99.40;;;;;;5020698;28;20179;-60
2021/04/29 04:35:16;;;;;;;3.03;2.70;;;9.90;99.50;;;;;;5023684;28;20648;-59
2021/04/29 04:37:42;;;;;;;10.40;3.20;;;9.80;99.40;;;;;;5023912;28;20168;-60
2021/04/29 04:40:08;;;;;;;2.73;2.40;;;9.90;99.80;;;;;;5017889;28;20749;-59
2021/04/29 04:42:34;;;;;;;7.30;3.00;;;9.90;99.70;;;;;;5024563;28;20179;-61
2021/04/29 04:45:00;;;;;;;3.33;3.03;;;9.90;99.40;;;;;;5027851;28;20435;-59
2021/04/29 04:47:26;;;;;;;3.10;2.50;;;9.90;99.40;;;;;;5024866;28;20184;-61
2021/04/29 04:49:51;;;;;;;3.60;2.63;;;9.90;99.40;;;;;;5018843;28;20450;-56
2021/04/29 04:52:17;;;;;;;4.73;2.90;;;9.90;99.50;;;;;;5024808;28;21003;-60
2021/04/29 04:54:43;;;;;;;7.80;2.87;;;9.90;99.30;;;;;;5020846;28;20210;-61
2021/04/29 04:57:10;;;;;;;4.40;3.00;;;9.90;99.30;;;;;;5016506;28;21677;-59
2021/04/29 04:59:36;;;;;;;4.77;3.13;;;9.90;99.40;;;;;;5019828;28;21063;-61
2021/04/29 05:02:05;;;;;;;3.20;2.90;;;9.90;99.20;;;;;;5021041;28;20431;-61
2021/04/29 05:04:32;;;;;;;3.87;3.30;;;9.90;99.10;;;;;;5027761;28;21010;-62
2021/04/29 05:06:57;;;;;;;4.60;3.40;;;10.00;98.60;;;;;;5027686;28;20433;-58
2021/04/29 05:09:23;;;;;;;5.77;3.33;;;9.90;98.80;;;;;;5026039;28;20838;-59
2021/04/29 05:11:49;;;;;;;4.23;3.63;;;9.90;98.80;;;;;;5016849;28;20197;-59
2021/04/29 05:14:15;;;;;;;8.37;5.07;;;10.00;98.30;;;;;;5019460;28;20282;-60
2021/04/29 05:16:43;;;;;;;6.67;5.00;;;9.90;98.80;;;;;;5024024;28;20909;-61
2021/04/29 05:19:11;;;;;;;7.30;4.17;;;9.90;99.00;;;;;;5021441;28;20542;-60
2021/04/29 05:21:38;;;;;;;7.20;4.43;;;9.90;98.80;;;;;;5026516;28;20473;-61
2021/04/29 05:24:04;;;;;;;14.47;4.90;;;9.90;99.40;;;;;;5031053;28;20514;-63
2021/04/29 05:26:29;;;;;;;8.30;4.03;;;10.00;98.90;;;;;;5041389;28;20445;-64
2021/04/29 05:28:55;;;;;;;8.40;3.67;;;10.00;99.00;;;;;;5042035;28;20455;-64
2021/04/29 05:31:21;;;;;;;8.77;3.97;;;10.00;98.90;;;;;;5047123;28;20496;-60
2021/04/29 05:33:46;;;;;;;6.57;3.50;;;10.00;99.00;;;;;;5048042;28;20195;-60
2021/04/29 05:36:12;;;;;;;7.47;4.10;;;10.00;98.90;;;;;;5043197;28;20179;-62
2021/04/29 05:38:38;;;;;;;4.80;3.63;;;10.00;98.60;;;;;;5039497;28;20210;-63
2021/04/29 05:41:03;;;;;;;5.97;3.73;;;10.00;98.50;;;;;;5034100;28;20180;-58
2021/04/29 05:43:29;;;;;;;4.83;3.77;;;10.00;98.40;;;;;;5025551;28;20207;-65
2021/04/29 05:45:55;;;;;;;6.83;4.37;;;9.90;98.90;;;;;;5024534;28;20180;-59
2021/04/29 05:48:20;;;;;;;4.50;3.50;;;9.90;99.00;;;;;;5035061;28;20200;-60
2021/04/29 05:50:46;;;;;;;5.00;4.00;;;9.90;99.20;;;;;;5017575;28;20199;-59
2021/04/29 05:53:12;;;;;;;7.30;4.50;;;9.90;99.60;;;;;;5020019;28;20211;-60
2021/04/29 05:55:38;;;;;;;11.33;5.80;;;9.90;98.70;;;;;;5019337;28;20519;-58
2021/04/29 05:58:03;;;;;;;6.97;4.57;;;9.90;98.90;;;;;;5024904;28;20187;-59
2021/04/29 06:00:29;;;;;;;12.23;5.13;;;9.90;99.10;;;;;;5023275;28;20670;-60
2021/04/29 06:02:55;;;;;;;8.87;5.20;;;10.00;98.90;;;;;;5026167;28;20184;-61
2021/04/29 06:05:22;;;;;;;7.47;5.40;;;10.00;98.50;;;;;;5021043;28;20179;-59
2021/04/29 06:07:55;;;;;;;8.37;5.53;;;10.00;98.50;;;;;;5028253;28;20458;-60
2021/04/29 06:10:21;;;;;;;6.97;4.80;;;10.10;98.60;;;;;;5016676;28;21194;-60
2021/04/29 06:12:47;;;;;;;7.60;4.80;;;10.10;98.80;;;;;;5026120;28;20434;-59
2021/04/29 06:15:13;;;;;;;8.83;5.10;;;10.20;98.60;;;;;;5020047;28;20466;-59
2021/04/29 06:17:38;;;;;;;6.67;4.87;;;10.20;98.40;;;;;;5025361;28;20179;-59
2021/04/29 06:20:05;;;;;;;7.90;4.30;;;10.20;98.20;;;;;;5024704;28;20207;-59
2021/04/29 06:22:31;;;;;;;9.07;5.93;;;10.20;98.30;;;;;;5028301;28;20574;-59
2021/04/29 06:24:56;;;;;;;15.03;5.00;;;10.30;98.30;;;;;;5026297;28;20464;-59
2021/04/29 06:27:22;;;;;;;9.50;5.90;;;10.30;98.10;;;;;;5029638;28;20180;-61
2021/04/29 06:29:48;;;;;;;11.30;6.07;;;10.30;97.90;;;;;;5035642;28;20219;-60
2021/04/29 06:32:13;;;;;;;10.20;6.33;;;10.30;98.00;;;;;;5022905;28;20191;-62
2021/04/29 06:34:39;;;;;;;11.33;7.93;;;10.40;98.10;;;;;;5020336;28;20204;-60
2021/04/29 06:37:05;;;;;;;10.17;6.67;;;10.40;98.20;;;;;;5019212;28;20548;-62
2021/04/29 06:39:32;;;;;;;8.20;6.00;;;10.40;98.10;;;;;;5018856;28;20206;-61
2021/04/29 06:41:57;;;;;;;7.43;5.57;;;10.40;98.40;;;;;;5021840;28;20196;-60
2021/04/29 06:44:23;;;;;;;10.00;5.77;;;10.50;98.50;;;;;;5018826;28;20434;-60
2021/04/29 06:46:49;;;;;;;8.77;5.87;;;10.50;98.70;;;;;;5029068;28;20188;-61
2021/04/29 06:49:15;;;;;;;10.90;5.90;;;10.50;98.70;;;;;;5029432;28;20274;-60
2021/04/29 06:51:40;;;;;;;8.80;5.47;;;10.50;98.80;;;;;;5027422;28;20275;-60
2021/04/29 06:54:06;;;;;;;8.13;6.40;;;10.60;98.90;;;;;;5022203;28;20200;-60
2021/04/29 06:56:33;;;;;;;11.00;6.67;;;10.60;98.90;;;;;;5026260;28;20195;-60
2021/04/29 06:58:59;;;;;;;8.67;6.40;;;10.70;99.00;;;;;;5026492;28;21055;-61
2021/04/29 07:01:24;;;;;;;7.83;6.00;;;10.70;99.10;;;;;;5028241;28;20441;-60
2021/04/29 07:03:50;;;;;;;12.20;9.07;;;10.80;98.50;;;;;;5028565;28;20199;-60
2021/04/29 07:06:16;;;;;;;10.37;8.37;;;10.80;97.90;;;;;;5017694;28;20184;-62
2021/04/29 07:08:41;;;;;;;12.33;7.70;;;10.90;98.10;;;;;;5035076;28;20776;-60
2021/04/29 07:11:07;;;;;;;12.60;7.17;;;10.90;98.60;;;;;;5030168;28;20577;-60
2021/04/29 07:13:32;;;;;;;9.50;7.00;;;11.00;98.50;;;;;;5032391;28;20210;-61
2021/04/29 07:15:58;;;;;;;10.57;6.60;;;11.10;98.30;;;;;;5048999;28;20175;-60
2021/04/29 07:18:24;;;;;;;9.03;6.93;;;11.20;97.90;;;;;;5027642;28;20321;-61
2021/04/29 07:20:54;;;;;;;9.10;6.60;;;11.30;97.60;;;;;;5031488;28;20183;-61
2021/04/29 07:23:19;;;;;;;10.93;6.70;;;11.40;97.20;;;;;;5026719;28;20180;-60
2021/04/29 07:25:46;;;;;;;9.50;7.00;;;11.40;96.80;;;;;;5029127;28;20445;-60
2021/04/29 07:28:11;;;;;;;11.50;7.53;;;11.40;95.60;;;;;;5030796;28;20698;-60
2021/04/29 07:30:39;;;;;;;12.80;8.73;;;11.40;95.60;;;;;;5030981;28;20434;-61
2021/04/29 07:33:05;;;;;;;12.80;8.93;;;11.40;95.30;;;;;;5019500;28;20262;-61
2021/04/29 07:35:31;;;;;;;10.63;8.63;;;11.40;94.90;;;;;;5024277;28;20800;-61
2021/04/29 07:37:57;;;;;;;14.53;8.57;;;11.40;95.00;;;;;;5029338;28;20954;-64
2021/04/29 07:40:22;;;;;;;14.40;8.93;;;11.40;95.30;;;;;;5024663;28;20538;-61
2021/04/29 07:42:48;;;;;;;15.97;8.73;;;11.50;95.10;;;;;;5025310;28;20185;-62
2021/04/29 07:45:14;;;;;;;13.80;9.00;;;11.60;94.30;;;;;;5023915;28;20187;-59
2021/04/29 07:47:40;;;;;;;16.07;8.97;;;11.60;94.80;;;;;;5035073;28;20176;-62
2021/04/29 07:50:07;;;;;;;14.37;8.70;;;11.70;94.70;;;;;;5021160;28;20537;-60
2021/04/29 07:52:34;;;;;;;14.00;8.40;;;11.70;94.40;;;;;;5023040;28;20603;-59
2021/04/29 07:55:00;;;;;;;16.03;8.70;;;11.60;94.40;;;;;;5029308;28;20600;-60
2021/04/29 07:57:28;;;;;;;14.13;9.43;;;11.60;95.10;;;;;;5029736;28;20521;-61
2021/04/29 07:59:54;;;;;;;10.57;8.37;;;11.60;94.90;;;;;;5028403;28;20200;-62
2021/04/29 08:02:19;;;;;;;15.37;8.97;;;11.60;94.40;;;;;;5023130;28;20962;-60
2021/04/29 08:04:45;;;;;;;12.83;8.40;;;11.60;94.60;;;;;;5024796;28;20187;-58
2021/04/29 08:07:10;;;;;;;14.17;8.73;;;11.60;95.10;;;;;;5021472;28;20195;-61
2021/04/29 08:09:36;;;;;;;18.13;8.03;;;11.60;95.20;;;;;;5030859;28;20220;-61
2021/04/29 08:12:02;;;;;;;14.30;9.57;;;11.60;95.70;;;;;;5023487;28;20209;-61
2021/04/29 08:14:28;;;;;;;22.43;8.80;;;11.60;95.30;;;;;;5014678;28;20208;-60
2021/04/29 08:16:53;;;;;;;14.97;9.00;;;11.60;94.70;;;;;;5017288;28;20437;-60
2021/04/29 08:19:19;;;;;;;14.30;9.00;;;11.60;94.80;;;;;;5021211;28;20200;-63
2021/04/29 08:21:47;;;;;;;17.53;10.00;;;11.70;95.60;;;;;;5025962;28;20314;-62
2021/04/29 08:24:12;;;;;;;17.60;9.43;;;11.80;94.90;;;;;;5019846;28;20222;-60
2021/04/29 08:26:39;;;;;;;21.33;9.73;;;11.80;94.40;;;;;;5017625;28;20923;-60
2021/04/29 08:29:05;;;;;;;13.63;7.93;;;11.90;94.80;;;;;;5023727;28;20250;-61
2021/04/29 08:31:34;;;;;;;12.53;8.73;;;11.90;93.60;;;;;;5015979;28;20454;-60
2021/04/29 08:33:59;;;;;;;14.73;9.33;;;11.90;93.30;;;;;;5016345;28;20353;-59
2021/04/29 08:36:29;;;;;;;14.00;8.53;;;11.90;93.10;;;;;;5030395;28;20716;-59
2021/04/29 08:38:55;;;;;;;14.90;9.40;;;12.00;93.10;;;;;;5027397;28;20230;-59
2021/04/29 08:41:21;;;;;;;14.23;8.97;;;12.10;92.90;;;;;;5012243;28;20550;-58
2021/04/29 08:43:46;;;;;;;16.83;9.07;;;12.20;92.40;;;;;;5013506;28;21011;-60
2021/04/29 08:46:12;;;;;;;11.60;8.90;;;12.20;91.60;;;;;;5019536;28;20712;-60
2021/04/29 08:48:38;;;;;;;13.97;8.80;;;12.30;92.20;;;;;;5028372;28;20253;-60
2021/04/29 08:51:04;;;;;;;13.53;8.83;;;12.40;92.40;;;;;;5026312;28;20180;-62
2021/04/29 08:53:29;;;;;;;18.70;10.00;;;12.60;92.20;;;;;;5026366;28;20466;-59
2021/04/29 08:55:58;;;;;;;12.90;8.60;;;12.70;91.50;;;;;;5026213;28;20194;-58
2021/04/29 08:58:23;;;;;;;15.10;9.27;;;12.80;91.10;;;;;;5023463;28;20203;-58
2021/04/29 09:01:03;;;;;;;11.67;9.17;;;12.90;90.90;;;;;;5021586;28;20431;-59
2021/04/29 09:03:34;;;;;;;15.70;9.27;;;12.90;90.70;;;;;;5024995;28;20191;-59
2021/04/29 09:06:01;;;;;;;11.53;7.93;;;13.00;90.20;;;;;;5038712;28;20433;-59
2021/04/29 09:08:31;;;;;;;11.80;8.67;;;13.10;90.70;;;;;;5029955;28;20843;-59
2021/04/29 09:11:10;;;;;;;17.27;9.17;;;13.20;90.30;;;;;;5026324;28;20448;-59
2021/04/29 09:13:37;;;;;;;17.13;9.43;;;13.50;90.40;;;;;;5015984;28;20458;-59
2021/04/29 09:16:14;;;;;;;15.30;9.03;;;13.70;85.90;;;;;;5014607;28;21050;-58
2021/04/29 09:18:41;;;;;;;16.40;9.77;;;13.80;84.20;;;;;;5014560;28;21219;-60
2021/04/29 09:21:14;;;;;;;13.60;9.57;;;13.80;77.70;;;;;;5016859;28;21299;-59
2021/04/29 09:23:42;;;;;;;14.00;9.47;;;13.80;77.50;;;;;;5017463;28;20443;-59
2021/04/29 09:26:11;;;;;;;16.73;9.17;;;13.90;74.70;;;;;;5020568;28;20497;-59
2021/04/29 09:28:54;;;;;;;16.03;8.87;;;14.10;81.60;;;;;;5022851;28;20589;-59
2021/04/29 09:31:24;;;;;;;15.53;8.60;;;14.30;78.80;;;;;;5023265;28;20525;-59
2021/04/29 09:34:01;;;;;;;11.73;8.40;;;14.50;76.10;;;;;;5012973;28;20458;-60
2021/04/29 09:36:35;;;;;;;11.93;9.00;;;14.50;73.60;;;;;;5017165;28;20431;-60
2021/04/29 09:39:10;;;;;;;15.80;8.77;;;14.40;74.40;;;;;;5016278;28;20549;-60
2021/04/29 09:41:45;;;;;;;17.70;9.30;;;14.50;77.30;;;;;;5022090;28;20445;-59
2021/04/29 09:44:18;;;;;;;13.57;8.07;;;14.50;77.60;;;;;;5018549;28;20429;-60
2021/04/29 09:46:46;;;;;;;17.93;9.50;;;14.50;71.10;;;;;;5018240;28;20430;-60
2021/04/29 09:49:32;;;;;;;12.03;8.33;;;14.40;68.00;;;;;;5017104;28;20458;-57
2021/04/29 09:51:59;;;;;;;14.33;9.27;;;14.40;68.50;;;;;;5011559;28;20450;-60
2021/04/29 09:54:27;;;;;;;12.93;8.97;;;14.60;64.30;;;;;;5016652;28;20493;-60
2021/04/29 09:56:58;;;;;;;12.37;8.30;;;14.80;63.20;;;;;;5012835;28;20462;-61
2021/04/29 09:59:25;;;;;;;11.03;8.30;;;14.90;60.30;;;;;;5011963;28;20830;-60
2021/04/29 10:01:56;;;;;;;13.10;8.30;;;14.90;59.60;;;;;;5018604;28;20431;-61
2021/04/29 10:04:23;;;;;;;14.50;8.50;;;14.70;60.20;;;;;;5016238;28;21350;-60
2021/04/29 10:06:49;;;;;;;11.87;8.67;;;14.60;60.20;;;;;;5014294;28;20438;-60
2021/04/29 10:09:15;;;;;;;12.83;8.03;;;14.50;61.00;;;;;;5017257;28;20481;-62
2021/04/29 10:11:45;;;;;;;15.90;9.00;;;14.40;63.80;;;;;;5020337;28;20481;-61
2021/04/29 10:14:12;;;;;;;12.63;7.20;;;14.50;62.80;;;;;;5025439;28;20462;-60
2021/04/29 10:16:38;;;;;;;14.13;8.10;;;14.50;62.20;;;;;;5018096;28;20947;-60
2021/04/29 10:19:04;;;;;;;13.97;8.10;;;14.60;63.30;;;;;;5021512;28;20457;-60
2021/04/29 10:21:32;;;;;;;13.40;8.70;;;14.70;62.20;;;;;;5024093;28;20485;-60
2021/04/29 10:23:58;;;;;;;16.10;9.07;;;15.00;61.20;;;;;;5024131;28;20194;-62
2021/04/29 10:26:27;;;;;;;16.53;9.10;;;15.20;58.10;;;;;;5022758;28;20438;-61
2021/04/29 10:29:05;;;;;;;16.10;9.07;;;15.10;57.50;;;;;;5026222;28;20601;-60
2021/04/29 10:31:33;;;;;;;13.57;9.17;;;15.00;57.40;;;;;;5025582;28;20437;-60
2021/04/29 10:34:02;;;;;;;11.33;8.30;;;14.80;57.70;;;;;;5025629;28;20457;-62
2021/04/29 10:36:49;;;;;;;18.80;8.83;;;14.60;59.20;;;;;;5036587;28;21236;-62
2021/04/29 10:39:16;;;;;;;13.20;8.83;;;14.50;59.50;;;;;;5019745;28;20873;-61
2021/04/29 10:41:43;;;;;;;11.10;7.97;;;14.20;60.90;;;;;;5030733;28;20541;-60
2021/04/29 10:44:19;;;;;;;17.33;8.87;;;14.10;61.80;;;;;;5029684;28;20449;-61
2021/04/29 10:46:49;;;;;;;13.50;8.57;;;14.00;64.10;;;;;;5026539;28;20425;-61
2021/04/29 10:49:16;;;;;;;13.13;7.80;;;13.80;62.60;;;;;;5025338;28;20839;-61
2021/04/29 10:51:44;;;;;;;15.93;7.67;;;13.70;63.60;;;;;;5026529;28;20434;-62
2021/04/29 10:54:15;;;;;;;12.20;9.23;;;13.70;63.10;;;;;;5014949;28;20469;-60
2021/04/29 10:56:42;;;;;;;12.47;7.80;;;13.60;63.00;;;;;;5025488;28;20437;-61
2021/04/29 10:59:13;;;;;;;12.47;8.20;;;13.60;65.90;;;;;;5031610;28;20454;-60
2021/04/29 11:01:41;;;;;;;11.13;7.30;;;13.70;66.10;;;;;;5019828;28;20459;-61
2021/04/29 11:04:20;;;;;;;25.40;8.90;;;13.70;66.00;;;;;;5027862;28;20434;-60
2021/04/29 11:06:48;;;;;;;14.50;8.03;;;13.80;64.80;;;;;;5024209;28;21040;-60
2021/04/29 11:09:22;;;;;;;15.60;9.20;;;13.80;65.10;;;;;;5025222;28;21040;-59
2021/04/29 11:12:03;;;;;;;14.73;8.00;;;13.90;63.80;;;;;;5033522;28;20523;-59
2021/04/29 11:14:44;;;;;;;13.93;8.83;;;13.80;63.10;;;;;;5027171;28;20462;-63
2021/04/29 11:17:26;;;;;;;15.93;7.50;;;13.70;62.90;;;;;;5021245;28;20911;-60
2021/04/29 11:19:57;;;;;;;9.00;7.90;;;13.70;64.10;;;;;;5017348;28;20458;-61
2021/04/29 11:22:30;;;;;;;14.90;8.10;;;13.70;64.30;;;;;;5015223;28;20440;-61
2021/04/29 11:24:56;;;;;;;9.93;7.40;;;13.70;64.80;;;;;;5017992;28;20442;-61
2021/04/29 11:27:38;;;;;;;11.53;7.23;;;13.90;62.30;;;;;;5028406;28;20429;-60
2021/04/29 11:30:09;;;;;;;14.33;6.77;;;14.20;59.70;;;;;;5028201;28;20489;-61
2021/04/29 11:32:37;;;;;;;17.77;6.63;;;14.60;58.20;;;;;;5005232;28;20430;-60
2021/04/29 11:35:06;;;;;;;13.57;6.47;;;15.00;54.70;;;;;;5030172;28;20550;-59
2021/04/29 11:37:42;;;;;;;11.20;6.63;;;15.50;52.90;;;;;;5021654;28;21112;-60
2021/04/29 11:40:09;;;;;;;9.23;6.33;;;15.70;52.10;;;;;;5031157;28;20453;-62
2021/04/29 11:42:34;;;;;;;25.60;15.03;;;15.60;50.40;;;;;;5029500;28;20430;-60
2021/04/29 11:45:14;;;;;;;9.43;6.03;;;15.50;50.00;;;;;;5030121;28;20826;-60
2021/04/29 11:47:59;;;;;;;12.63;6.40;;;15.30;51.20;;;;;;5021512;28;20183;-61
2021/04/29 11:50:53;;;;;;;14.43;5.90;;;15.10;50.70;;;;;;5019449;28;20810;-59
2021/04/29 11:53:24;;;;;;;12.10;7.13;;;14.90;51.20;;;;;;5015342;28;20446;-60
2021/04/29 11:55:58;;;;;;;10.07;5.90;;;14.90;51.30;;;;;;5024068;28;20427;-60
2021/04/29 11:58:24;;;;;;;8.67;5.77;;;14.80;51.30;;;;;;5028463;28;20450;-60
2021/04/29 12:00:54;;;;;;;12.07;6.20;;;14.90;51.70;;;;;;5026338;28;21014;-60
2021/04/29 12:03:25;;;;;;;10.13;6.00;;;14.90;52.10;;;;;;5024410;28;20425;-60
2021/04/29 12:05:53;;;;;;;10.27;5.43;;;15.10;52.00;;;;;;5020576;28;20437;-61
2021/04/29 12:08:20;;;;;;;9.60;6.50;;;15.30;50.40;;;;;;5017578;28;20431;-62
2021/04/29 12:10:54;;;;;;;11.13;5.60;;;15.40;49.80;;;;;;5011099;28;20426;-61
2021/04/29 12:13:44;;;;;;;11.50;4.70;;;15.40;48.80;;;;;;5013984;28;20433;-62
2021/04/29 12:16:12;;;;;;;12.40;5.83;;;15.40;48.90;;;;;;5014163;28;20446;-61
2021/04/29 12:18:43;;;;;;;7.57;5.53;;;15.30;49.00;;;;;;5014320;28;20512;-60
2021/04/29 12:21:09;;;;;;;7.47;4.93;;;15.20;48.90;;;;;;5015160;28;21265;-59
2021/04/29 12:23:36;;;;;;;8.60;4.80;;;15.10;48.40;;;;;;5018101;28;20539;-60
2021/04/29 12:26:07;;;;;;;10.20;5.83;;;15.00;48.50;;;;;;5021033;28;20430;-60
2021/04/29 12:28:41;;;;;;;14.00;7.50;;;14.90;48.80;;;;;;5019590;28;20549;-62
2021/04/29 12:31:20;;;;;;;11.50;5.63;;;14.90;49.30;;;;;;5029124;28;20457;-58
2021/04/29 12:34:05;;;;;;;7.23;4.80;;;15.10;48.90;;;;;;5024073;28;20477;-59
2021/04/29 12:36:34;;;;;;;6.70;5.10;;;15.70;49.70;;;;;;5017689;28;20540;-59
2021/04/29 12:39:10;;;;;;;7.43;5.20;;;16.40;47.50;;;;;;5022659;28;20477;-60
2021/04/29 12:41:36;;;;;;;7.60;5.07;;;16.80;46.10;;;;;;5015011;28;20441;-59
2021/04/29 12:44:04;;;;;;;5.87;4.40;;;16.90;45.80;;;;;;5025782;28;21857;-59
2021/04/29 12:46:38;;;;;;;6.97;5.07;;;16.90;46.30;;;;;;5023543;28;20656;-58
2021/04/29 12:49:06;;;;;;;7.70;4.80;;;16.60;46.30;;;;;;5028370;28;20895;-60
2021/04/29 12:51:34;;;;;;;9.27;5.50;;;16.30;45.40;;;;;;5005648;28;20446;-59